createdAt,value
2022-09-01T00:00:30.041Z,49.78
2022-09-01T00:02:59.810Z,49.58
2022-09-01T00:05:28.050Z,49.52
2022-09-01T00:07:55.924Z,49.85
2022-09-01T00:10:24.100Z,49.92
2022-09-01T00:12:52.693Z,49.65
2022-09-01T00:15:20.693Z,49.86
2022-09-01T00:17:49.058Z,49.70
2022-09-01T00:20:20.752Z,49.95
2022-09-01T00:22:49.893Z,49.90
2022-09-01T00:25:20.327Z,50.06
2022-09-01T00:27:49.675Z,50.01
2022-09-01T00:30:18.480Z,50.42
2022-09-01T00:32:46.900Z,50.40
2022-09-01T00:35:15.333Z,50.31
2022-09-01T00:37:45.319Z,50.37
2022-09-01T00:40:15.129Z,50.19
2022-09-01T00:42:44.538Z,50.21
2022-09-01T00:45:13.355Z,50.32
2022-09-01T00:47:41.633Z,50.32
2022-09-01T00:50:11.510Z,50.53
2022-09-01T00:52:44.056Z,50.27
2022-09-01T00:55:17.316Z,50.21
2022-09-01T00:57:46.415Z,50.39
2022-09-01T01:00:18.542Z,49.89
2022-09-01T01:02:47.110Z,50.11
2022-09-01T01:05:16.059Z,49.94
2022-09-01T01:07:48.080Z,49.80
2022-09-01T01:10:23.881Z,50.03
2022-09-01T01:12:52.603Z,50.32
2022-09-01T01:15:21.406Z,50.68
2022-09-01T01:17:49.378Z,50.90
2022-09-01T01:20:37.935Z,50.93
2022-09-01T01:23:15.936Z,50.76
2022-09-01T01:25:49.826Z,52.71
2022-09-01T01:28:22.075Z,52.14
2022-09-01T01:30:53.593Z,51.05
2022-09-01T01:33:24.092Z,51.02
2022-09-01T01:35:56.246Z,51.14
2022-09-01T01:38:27.547Z,51.04
2022-09-01T01:40:57.671Z,51.37
2022-09-01T01:43:27.548Z,51.32
2022-09-01T01:45:58.975Z,51.25
2022-09-01T01:48:28.211Z,51.36
2022-09-01T01:51:00.859Z,51.32
2022-09-01T01:53:29.954Z,51.37
2022-09-01T01:56:00.911Z,51.41
2022-09-01T01:58:30.750Z,51.55
2022-09-01T02:00:59.141Z,51.82
2022-09-01T02:03:30.772Z,51.60
2022-09-01T02:06:04.707Z,51.64
2022-09-01T02:08:34.154Z,51.95
2022-09-01T02:11:05.910Z,52.02
2022-09-01T02:13:35.155Z,52.58
2022-09-01T02:16:07.576Z,52.48
2022-09-01T02:18:38.041Z,52.95
2022-09-01T02:21:15.110Z,52.50
2022-09-01T02:23:44.382Z,52.45
2022-09-01T02:26:16.978Z,52.51
2022-09-01T02:28:55.577Z,52.70
2022-09-01T02:31:28.831Z,52.71
2022-09-01T02:33:57.100Z,52.89
2022-09-01T02:36:25.857Z,53.07
2022-09-01T02:38:56.463Z,52.86
2022-09-01T02:41:29.095Z,53.33
2022-09-01T02:44:02.229Z,53.16
2022-09-01T02:46:30.801Z,53.06
2022-09-01T02:49:00.798Z,52.89
2022-09-01T02:51:29.204Z,53.01
2022-09-01T02:53:57.588Z,52.95
2022-09-01T02:56:27.380Z,52.89
2022-09-01T02:58:56.214Z,52.99
2022-09-01T03:01:29.379Z,53.06
2022-09-01T03:04:01.973Z,53.35
2022-09-01T03:06:34.120Z,53.48
2022-09-01T03:09:03.927Z,53.53
2022-09-01T03:11:35.040Z,53.37
2022-09-01T03:14:03.424Z,53.83
2022-09-01T03:16:31.588Z,53.25
2022-09-01T03:19:03.197Z,53.62
2022-09-01T03:21:32.443Z,53.96
2022-09-01T03:24:02.086Z,53.64
2022-09-01T03:26:31.352Z,53.36
2022-09-01T03:29:01.880Z,53.30
2022-09-01T03:31:31.019Z,53.47
2022-09-01T03:34:00.750Z,53.26
2022-09-01T03:36:33.319Z,53.53
2022-09-01T03:39:02.258Z,53.71
2022-09-01T03:41:31.378Z,53.60
2022-09-01T03:44:01.324Z,53.91
2022-09-01T03:46:36.236Z,53.92
2022-09-01T03:49:07.477Z,54.13
2022-09-01T03:51:39.185Z,54.02
2022-09-01T03:54:07.883Z,53.95
2022-09-01T03:56:36.307Z,53.51
2022-09-01T03:59:05.615Z,53.51
2022-09-01T04:01:43.849Z,53.56
2022-09-01T04:04:15.034Z,53.76
2022-09-01T04:06:44.610Z,53.60
2022-09-01T04:09:14.527Z,53.61
2022-09-01T04:11:46.337Z,53.58
2022-09-01T04:14:16.686Z,53.61
2022-09-01T04:17:03.279Z,53.28
2022-09-01T04:19:36.787Z,53.57
2022-09-01T04:22:07.815Z,54.45
2022-09-01T04:24:36.572Z,54.10
2022-09-01T04:27:07.578Z,54.20
2022-09-01T04:29:37.171Z,53.92
2022-09-01T04:32:12.556Z,53.74
2022-09-01T04:34:41.674Z,53.54
2022-09-01T04:37:13.113Z,53.32
2022-09-01T04:39:51.279Z,53.36
2022-09-01T04:42:23.471Z,53.54
2022-09-01T04:44:54.623Z,53.50
2022-09-01T04:47:35.154Z,53.58
2022-09-01T04:50:13.820Z,53.57
2022-09-01T04:52:44.801Z,53.69
2022-09-01T04:55:18.394Z,53.91
2022-09-01T04:57:49.543Z,53.75
2022-09-01T05:00:23.389Z,53.71
2022-09-01T05:02:53.349Z,54.01
2022-09-01T05:05:22.728Z,53.76
2022-09-01T05:07:53.035Z,53.87
2022-09-01T05:10:29.890Z,53.73
2022-09-01T05:12:58.422Z,53.63
2022-09-01T05:15:28.110Z,53.59
2022-09-01T05:18:02.312Z,53.82
2022-09-01T05:20:32.017Z,54.01
2022-09-01T05:23:00.530Z,54.20
2022-09-01T05:25:28.478Z,54.30
2022-09-01T05:27:56.721Z,54.38
2022-09-01T05:30:28.569Z,54.43
2022-09-01T05:32:58.164Z,54.38
2022-09-01T05:35:32.640Z,54.27
2022-09-01T05:38:02.547Z,54.33
2022-09-01T05:40:30.901Z,54.45
2022-09-01T05:42:59.381Z,54.66
2022-09-01T05:45:28.025Z,54.50
2022-09-01T05:47:58.326Z,54.45
2022-09-01T05:50:27.903Z,54.56
2022-09-01T05:52:56.138Z,54.80
2022-09-01T05:55:27.676Z,54.72
2022-09-01T05:57:57.238Z,54.46
2022-09-01T06:00:25.345Z,54.49
2022-09-01T06:02:58.669Z,54.72
2022-09-01T06:05:28.205Z,54.51
2022-09-01T06:07:57.310Z,54.45
2022-09-01T06:10:25.519Z,54.69
2022-09-01T06:12:54.401Z,54.75
2022-09-01T06:15:24.752Z,54.83
2022-09-01T06:17:53.534Z,54.34
2022-09-01T06:20:22.984Z,54.36
2022-09-01T06:22:53.376Z,54.38
2022-09-01T06:25:22.054Z,54.83
2022-09-01T06:27:52.403Z,54.46
2022-09-01T06:30:24.482Z,54.56
2022-09-01T06:32:54.816Z,54.70
2022-09-01T06:35:29.898Z,54.58
2022-09-01T06:37:59.985Z,54.78
2022-09-01T06:40:30.330Z,54.25
2022-09-01T06:43:00.497Z,54.22
2022-09-01T06:45:29.387Z,54.17
2022-09-01T06:47:59.370Z,54.10
2022-09-01T06:53:45.027Z,53.98
2022-09-01T06:56:13.617Z,53.71
2022-09-01T06:58:47.262Z,53.49
2022-09-01T07:01:19.561Z,53.25
2022-09-01T07:03:51.908Z,53.04
2022-09-01T07:09:22.262Z,52.90
2022-09-01T07:12:29.422Z,52.68
2022-09-01T07:17:50.233Z,52.37
2022-09-01T07:20:24.607Z,52.19
2022-09-01T07:23:09.971Z,52.11
2022-09-01T07:26:02.243Z,51.96
2022-09-01T07:28:39.919Z,51.99
2022-09-01T07:39:55.401Z,50.74
2022-09-01T07:45:28.769Z,50.10
2022-09-01T07:48:00.027Z,49.76
2022-09-01T07:53:19.891Z,49.54
2022-09-01T07:55:49.954Z,49.44
2022-09-01T07:58:22.111Z,49.17
2022-09-01T08:00:53.340Z,48.75
2022-09-01T08:03:25.084Z,48.92
2022-09-01T08:05:57.590Z,48.46
2022-09-01T08:08:29.354Z,48.34
2022-09-01T08:11:05.297Z,48.30
2022-09-01T08:13:41.744Z,48.14
2022-09-01T08:16:19.526Z,47.09
2022-09-01T08:18:49.979Z,47.70
2022-09-01T08:21:23.538Z,47.63
2022-09-01T08:23:56.753Z,47.45
2022-09-01T08:26:27.154Z,47.40
2022-09-01T08:28:57.104Z,47.42
2022-09-01T08:31:30.623Z,47.08
2022-09-01T08:34:00.194Z,47.17
2022-09-01T08:36:29.217Z,46.82
2022-09-01T08:38:57.179Z,46.63
2022-09-01T08:41:38.699Z,46.15
2022-09-01T08:44:18.159Z,45.64
2022-09-01T08:46:47.130Z,44.81
2022-09-01T08:49:28.141Z,45.68
2022-09-01T08:52:07.204Z,45.12
2022-09-01T08:54:43.445Z,44.61
2022-09-01T08:57:18.093Z,42.96
2022-09-01T08:59:53.622Z,44.23
2022-09-01T09:02:38.604Z,43.19
2022-09-01T09:05:16.764Z,42.21
2022-09-01T09:08:07.124Z,44.03
2022-09-01T09:10:43.563Z,40.76
2022-09-01T09:13:22.583Z,42.48
2022-09-01T09:16:14.041Z,42.62
2022-09-01T09:18:56.640Z,41.10
2022-09-01T09:21:29.899Z,42.32
2022-09-01T09:24:05.088Z,42.79
2022-09-01T09:26:48.814Z,41.83
2022-09-01T09:29:18.145Z,41.95
2022-09-01T09:31:50.766Z,42.73
2022-09-01T09:34:32.572Z,42.96
2022-09-01T09:37:03.523Z,39.60
2022-09-01T09:39:31.667Z,41.45
2022-09-01T09:42:09.006Z,41.67
2022-09-01T09:44:44.168Z,41.23
2022-09-01T09:47:46.599Z,40.45
2022-09-01T09:50:20.673Z,38.72
2022-09-01T09:52:49.547Z,40.46
2022-09-01T09:55:25.523Z,40.11
2022-09-01T09:57:58.990Z,38.61
2022-09-01T10:00:29.825Z,40.95
2022-09-01T10:03:04.702Z,41.17
2022-09-01T10:05:42.803Z,39.49
2022-09-01T10:08:14.817Z,38.00
2022-09-01T10:10:57.346Z,39.80
2022-09-01T10:13:29.135Z,40.02
2022-09-01T10:16:03.695Z,40.02
2022-09-01T10:18:39.382Z,39.32
2022-09-01T10:21:12.976Z,37.77
2022-09-01T10:23:43.199Z,38.44
2022-09-01T10:26:16.911Z,38.99
2022-09-01T10:28:54.019Z,38.53
2022-09-01T10:31:23.046Z,38.35
2022-09-01T10:33:52.811Z,38.56
2022-09-01T10:36:24.610Z,37.79
2022-09-01T10:38:58.740Z,37.91
2022-09-01T10:41:58.115Z,37.69
2022-09-01T10:44:34.144Z,31.53
2022-09-01T10:47:13.193Z,37.21
2022-09-01T10:50:10.144Z,37.08
2022-09-01T10:53:02.626Z,33.64
2022-09-01T10:55:41.485Z,33.68
2022-09-01T11:01:34.949Z,33.56
2022-09-01T11:04:02.636Z,37.69
2022-09-01T11:07:16.862Z,37.88
2022-09-01T11:09:49.180Z,33.62
2022-09-01T11:12:48.272Z,36.99
2022-09-01T11:15:39.257Z,33.85
2022-09-01T11:18:13.331Z,32.84
2022-09-01T11:20:48.038Z,36.19
2022-09-01T11:23:31.167Z,35.77
2022-09-01T11:28:51.543Z,34.35
2022-09-01T11:31:31.835Z,35.15
2022-09-01T11:34:14.023Z,30.72
2022-09-01T11:36:54.129Z,31.19
2022-09-01T11:39:32.363Z,28.87
2022-09-01T11:42:04.958Z,32.21
2022-09-01T11:44:38.399Z,34.37
2022-09-01T11:47:13.660Z,34.26
2022-09-01T11:49:50.047Z,34.33
2022-09-01T11:52:20.531Z,31.36
2022-09-01T11:54:49.391Z,32.91
2022-09-01T11:57:25.528Z,32.78
2022-09-01T11:59:54.451Z,28.05
2022-09-01T12:02:26.008Z,32.11
2022-09-01T12:04:56.321Z,31.21
2022-09-01T12:07:38.202Z,31.50
2022-09-01T12:10:16.212Z,29.53
2022-09-01T12:12:45.715Z,27.09
2022-09-01T12:15:21.271Z,32.64
2022-09-01T12:17:49.568Z,27.30
2022-09-01T12:20:31.115Z,31.83
2022-09-01T12:23:02.341Z,27.46
2022-09-01T12:25:33.424Z,33.10
2022-09-01T12:28:06.006Z,32.61
2022-09-01T12:30:39.431Z,29.91
2022-09-01T12:33:25.990Z,32.66
2022-09-01T12:36:23.763Z,32.71
2022-09-01T12:38:53.283Z,27.80
2022-09-01T12:41:35.242Z,32.33
2022-09-01T12:44:34.576Z,28.83
2022-09-01T12:47:06.918Z,27.22
2022-09-01T12:49:38.296Z,32.43
2022-09-01T12:52:26.393Z,31.50
2022-09-01T12:55:47.455Z,29.09
2022-09-01T12:58:06.956Z,28.73
2022-09-01T13:00:37.941Z,31.78
2022-09-01T13:03:18.365Z,30.26
2022-09-01T13:05:51.062Z,32.33
2022-09-01T13:08:22.312Z,32.63
2022-09-01T13:10:53.284Z,32.55
2022-09-01T13:13:24.083Z,32.54
2022-09-01T13:15:55.326Z,32.69
2022-09-01T13:18:26.188Z,32.43
2022-09-01T13:20:56.156Z,32.80
2022-09-01T13:23:25.213Z,33.05
2022-09-01T13:25:53.768Z,33.13
2022-09-01T13:36:51.495Z,32.08
2022-09-01T13:39:20.857Z,32.15
2022-09-01T13:41:49.302Z,31.69
2022-09-01T13:44:18.419Z,31.58
2022-09-01T13:52:24.174Z,31.03
2022-09-01T13:54:52.350Z,30.37
2022-09-01T13:57:20.307Z,30.79
2022-09-01T13:59:48.486Z,31.00
2022-09-01T14:02:18.204Z,30.75
2022-09-01T14:04:49.847Z,30.08
2022-09-01T14:07:20.517Z,29.27
2022-09-01T14:09:58.709Z,30.25
2022-09-01T14:12:30.761Z,30.46
2022-09-01T14:17:52.440Z,30.19
2022-09-01T14:20:22.857Z,29.27
2022-09-01T14:22:52.034Z,30.14
2022-09-01T14:25:21.503Z,30.19
2022-09-01T14:27:49.880Z,30.25
2022-09-01T14:30:20.892Z,30.19
2022-09-01T14:32:51.402Z,28.56
2022-09-01T14:35:21.735Z,28.83
2022-09-01T14:37:49.934Z,29.31
2022-09-01T14:40:18.542Z,29.77
2022-09-01T14:42:51.630Z,30.73
2022-09-01T14:45:22.723Z,30.10
2022-09-01T14:47:55.309Z,30.94
2022-09-01T14:50:24.704Z,29.94
2022-09-01T14:52:54.967Z,31.10
2022-09-01T14:55:24.655Z,31.00
2022-09-01T14:57:54.446Z,30.57
2022-09-01T15:00:25.223Z,31.18
2022-09-01T15:02:55.849Z,29.90
2022-09-01T15:05:24.985Z,30.54
2022-09-01T15:07:54.260Z,30.73
2022-09-01T15:10:26.087Z,30.72
2022-09-01T15:12:55.849Z,29.90
2022-09-01T15:15:24.487Z,30.70
2022-09-01T15:17:53.029Z,30.46
2022-09-01T15:20:41.043Z,29.34
2022-09-01T15:23:10.083Z,30.01
2022-09-01T15:25:38.420Z,30.18
2022-09-01T15:28:06.731Z,30.03
2022-09-01T15:30:35.324Z,30.10
2022-09-01T15:33:06.651Z,30.24
2022-09-01T15:35:36.261Z,29.69
2022-09-01T15:38:06.698Z,28.53
2022-09-01T15:40:35.535Z,27.97
2022-09-01T15:43:03.488Z,27.04
2022-09-01T15:45:31.664Z,27.70
2022-09-01T15:47:59.884Z,26.90
2022-09-01T15:50:28.572Z,26.79
2022-09-01T15:53:01.497Z,27.00
2022-09-01T15:55:31.330Z,25.35
2022-09-01T15:58:00.363Z,25.81
2022-09-01T16:00:28.587Z,27.41
2022-09-01T16:03:01.511Z,27.18
2022-09-01T16:05:29.966Z,26.71
2022-09-01T16:08:01.314Z,25.88
2022-09-01T16:10:33.607Z,26.05
2022-09-01T16:13:05.282Z,26.55
2022-09-01T16:15:35.533Z,26.54
2022-09-01T16:18:19.744Z,26.27
2022-09-01T16:21:00.107Z,21.76
2022-09-01T16:23:40.703Z,21.54
2022-09-01T16:26:09.018Z,23.61
2022-09-01T16:28:37.883Z,26.06
2022-09-01T16:31:11.755Z,26.14
2022-09-01T16:33:40.251Z,25.37
2022-09-01T16:36:27.170Z,27.13
2022-09-01T16:39:03.068Z,23.80
2022-09-01T16:41:43.939Z,26.59
2022-09-01T16:44:23.513Z,26.09
2022-09-01T16:47:05.205Z,26.70
2022-09-01T16:49:40.004Z,26.91
2022-09-01T16:52:17.167Z,28.98
2022-09-01T16:55:02.761Z,28.90
2022-09-01T16:57:41.257Z,28.29
2022-09-01T17:00:14.115Z,29.25
2022-09-01T17:02:50.949Z,30.17
2022-09-01T17:05:25.288Z,29.89
2022-09-01T17:08:06.830Z,30.25
2022-09-01T17:10:43.927Z,30.17
2022-09-01T17:13:20.218Z,29.92
2022-09-01T17:15:53.702Z,30.55
2022-09-01T17:18:30.526Z,30.79
2022-09-01T17:21:03.557Z,30.77
2022-09-01T17:23:38.095Z,30.86
2022-09-01T17:26:15.578Z,31.14
2022-09-01T17:28:48.872Z,31.27
2022-09-01T17:31:33.919Z,31.79
2022-09-01T17:34:11.335Z,31.80
2022-09-01T17:36:47.125Z,31.92
2022-09-01T17:39:27.927Z,32.73
2022-09-01T17:42:00.524Z,33.26
2022-09-01T17:44:37.311Z,32.86
2022-09-01T17:47:12.654Z,33.36
2022-09-01T17:49:51.680Z,33.26
2022-09-01T17:52:29.377Z,33.48
2022-09-01T17:55:04.525Z,33.67
2022-09-01T17:57:41.908Z,33.62
2022-09-01T18:00:22.968Z,34.53
2022-09-01T18:03:14.841Z,34.24
2022-09-01T18:05:45.844Z,35.48
2022-09-01T18:08:30.067Z,34.56
2022-09-01T18:11:02.372Z,35.29
2022-09-01T18:13:52.981Z,35.12
2022-09-01T18:16:24.471Z,36.27
2022-09-01T18:18:54.498Z,35.21
2022-09-01T18:21:26.199Z,35.72
2022-09-01T18:23:59.153Z,35.79
2022-09-01T18:26:32.395Z,35.82
2022-09-01T18:29:04.759Z,36.23
2022-09-01T18:32:08.756Z,36.36
2022-09-01T18:35:02.578Z,38.80
2022-09-01T18:37:37.004Z,38.75
2022-09-01T18:40:13.459Z,37.18
2022-09-01T18:42:49.155Z,37.55
2022-09-01T18:45:30.678Z,37.47
2022-09-01T18:48:10.115Z,38.56
2022-09-01T18:50:48.159Z,38.73
2022-09-01T18:53:28.332Z,38.75
2022-09-01T18:56:01.762Z,38.66
2022-09-01T18:58:45.519Z,38.05
2022-09-01T19:01:18.137Z,39.13
2022-09-01T19:03:53.559Z,38.90
2022-09-01T19:06:31.579Z,38.96
2022-09-01T19:09:08.756Z,39.89
2022-09-01T19:11:49.008Z,39.64
2022-09-01T19:14:25.914Z,41.06
2022-09-01T19:17:08.523Z,40.62
2022-09-01T19:19:43.970Z,41.10
2022-09-01T19:22:17.583Z,40.52
2022-09-01T19:24:51.875Z,40.39
2022-09-01T19:27:25.257Z,40.43
2022-09-01T19:29:57.017Z,40.05
2022-09-01T19:32:29.609Z,40.26
2022-09-01T19:35:04.460Z,41.35
2022-09-01T19:37:33.151Z,40.11
2022-09-01T19:40:01.461Z,39.77
2022-09-01T19:42:34.806Z,40.09
2022-09-01T19:45:10.197Z,40.83
2022-09-01T19:47:45.582Z,41.62
2022-09-01T19:50:19.928Z,41.98
2022-09-01T19:52:55.563Z,40.96
2022-09-01T19:55:31.533Z,41.10
2022-09-01T19:58:04.228Z,40.54
2022-09-01T20:00:50.766Z,40.96
2022-09-01T20:03:26.548Z,41.71
2022-09-01T20:06:01.468Z,41.23
2022-09-01T20:08:38.115Z,41.10
2022-09-01T20:11:11.754Z,41.83
2022-09-01T20:14:08.302Z,41.35
2022-09-01T20:16:41.594Z,43.15
2022-09-01T20:19:16.285Z,41.17
2022-09-01T20:21:46.261Z,41.24
2022-09-01T20:24:23.675Z,41.36
2022-09-01T20:26:59.292Z,41.84
2022-09-01T20:29:33.878Z,42.16
2022-09-01T20:32:04.021Z,41.90
2022-09-01T20:34:38.433Z,41.42
2022-09-01T20:37:11.143Z,41.92
2022-09-01T20:40:01.808Z,42.08
2022-09-01T20:42:40.205Z,41.79
2022-09-01T20:45:13.520Z,42.48
2022-09-01T20:47:42.816Z,42.49
2022-09-01T20:50:14.790Z,41.97
2022-09-01T20:52:54.656Z,42.68
2022-09-01T20:55:30.061Z,43.26
2022-09-01T20:58:05.959Z,43.72
2022-09-01T21:00:43.205Z,42.93
2022-09-01T21:03:19.277Z,42.96
2022-09-01T21:05:58.360Z,42.71
2022-09-01T21:08:44.185Z,43.18
2022-09-01T21:11:25.371Z,44.20
2022-09-01T21:14:14.045Z,43.59
2022-09-01T21:16:53.555Z,42.99
2022-09-01T21:19:32.807Z,43.42
2022-09-01T21:22:07.489Z,44.65
2022-09-01T21:24:36.000Z,44.54
2022-09-01T21:27:08.042Z,43.26
2022-09-01T21:29:53.498Z,43.78
2022-09-01T21:32:22.827Z,45.23
2022-09-01T21:34:51.411Z,43.77
2022-09-01T21:37:22.366Z,43.75
2022-09-01T21:39:53.512Z,43.75
2022-09-01T21:42:23.150Z,44.71
2022-09-01T21:44:54.386Z,44.98
2022-09-01T21:47:22.913Z,44.42
2022-09-01T21:49:54.004Z,44.08
2022-09-01T21:52:23.363Z,44.66
2022-09-01T21:54:51.531Z,44.45
2022-09-01T21:57:20.898Z,45.54
2022-09-01T21:59:48.861Z,46.44
2022-09-01T22:02:17.512Z,45.73
2022-09-01T22:04:45.768Z,45.34
2022-09-01T22:07:18.620Z,45.62
2022-09-01T22:09:48.855Z,45.32
2022-09-01T22:12:16.794Z,45.73
2022-09-01T22:14:44.768Z,45.06
2022-09-01T22:17:13.140Z,45.87
2022-09-01T22:19:41.106Z,45.84
2022-09-01T22:22:09.369Z,45.94
2022-09-01T22:24:37.660Z,45.34
2022-09-01T22:27:09.915Z,45.91
2022-09-01T22:29:38.800Z,46.13
2022-09-01T22:32:06.961Z,45.73
2022-09-01T22:34:35.886Z,45.58
2022-09-01T22:37:05.039Z,45.78
2022-09-01T22:39:33.040Z,45.21
2022-09-01T22:42:01.143Z,45.16
2022-09-01T22:44:30.631Z,45.14
2022-09-01T22:46:58.639Z,45.02
2022-09-01T22:49:26.620Z,45.25
2022-09-01T22:51:54.768Z,45.41
2022-09-01T22:54:22.879Z,46.08
2022-09-01T22:56:52.461Z,46.00
2022-09-01T22:59:23.178Z,46.12
2022-09-01T23:01:52.999Z,46.15
2022-09-01T23:04:21.662Z,46.43
2022-09-01T23:06:52.577Z,46.29
2022-09-01T23:09:21.735Z,46.13
2022-09-01T23:11:50.450Z,46.64
2022-09-01T23:14:18.536Z,46.61
2022-09-01T23:16:47.093Z,46.36
2022-09-01T23:19:21.855Z,46.81
2022-09-01T23:21:51.037Z,47.91
2022-09-01T23:24:20.525Z,48.21
2022-09-01T23:26:49.727Z,48.41
2022-09-01T23:29:18.346Z,48.57
2022-09-01T23:31:46.657Z,48.65
2022-09-01T23:34:16.534Z,48.81
2022-09-01T23:36:46.180Z,49.24
2022-09-01T23:39:14.868Z,49.31
2022-09-01T23:41:43.383Z,48.96
2022-09-01T23:44:13.331Z,49.22
2022-09-01T23:46:44.512Z,48.87
2022-09-01T23:49:14.102Z,49.34
2022-09-01T23:51:42.405Z,49.25
2022-09-01T23:54:12.081Z,49.29
2022-09-01T23:56:40.816Z,49.68
2022-09-01T23:59:09.770Z,49.55
